createdAt,value
2018-06-15T00:00:17.819Z,16.90
2018-06-15T00:01:17.974Z,16.96
2018-06-15T00:02:18.124Z,16.98
2018-06-15T00:03:18.280Z,16.98
2018-06-15T00:04:18.435Z,17.00
2018-06-15T00:05:18.585Z,17.03
2018-06-15T00:06:18.739Z,16.98
2018-06-15T00:07:18.892Z,17.00
2018-06-15T00:08:19.047Z,17.07
2018-06-15T00:09:19.203Z,16.96
2018-06-15T00:10:19.354Z,16.81
2018-06-15T00:11:19.509Z,16.81
2018-06-15T00:12:19.661Z,16.81
2018-06-15T00:13:19.814Z,16.71
2018-06-15T00:14:19.967Z,16.65
2018-06-15T00:15:20.129Z,16.63
2018-06-15T00:16:20.282Z,16.58
2018-06-15T00:17:20.438Z,16.60
2018-06-15T00:18:20.588Z,16.49
2018-06-15T00:19:20.741Z,16.53
2018-06-15T00:20:20.895Z,16.52
2018-06-15T00:21:21.049Z,16.37
2018-06-15T00:22:21.204Z,16.41
2018-06-15T00:23:21.360Z,16.44
2018-06-15T00:24:21.514Z,16.49
2018-06-15T00:25:21.665Z,16.48
2018-06-15T00:26:21.824Z,16.60
2018-06-15T00:27:21.976Z,16.60
2018-06-15T00:28:22.128Z,16.58
2018-06-15T00:29:22.296Z,16.60
2018-06-15T00:30:22.436Z,16.65
2018-06-15T00:31:22.590Z,16.63
2018-06-15T00:32:22.746Z,16.75
2018-06-15T00:33:22.898Z,16.85
2018-06-15T00:34:23.051Z,16.74
2018-06-15T00:35:23.205Z,16.70
2018-06-15T00:36:23.363Z,16.71
2018-06-15T00:37:23.510Z,16.74
2018-06-15T00:38:23.667Z,16.74
2018-06-15T00:39:23.820Z,16.80
2018-06-15T00:40:23.973Z,16.81
2018-06-15T00:41:24.128Z,16.70
2018-06-15T00:42:24.283Z,16.62
2018-06-15T00:43:24.434Z,16.68
2018-06-15T00:44:24.588Z,16.53
2018-06-15T00:45:24.743Z,16.53
2018-06-15T00:46:24.897Z,16.52
2018-06-15T00:47:25.049Z,16.33
2018-06-15T00:48:25.204Z,16.41
2018-06-15T00:49:25.359Z,16.49
2018-06-15T00:50:25.513Z,16.44
2018-06-15T00:51:25.664Z,16.50
2018-06-15T00:52:25.817Z,16.50
2018-06-15T00:53:25.971Z,16.48
2018-06-15T00:54:26.125Z,16.55
2018-06-15T00:55:26.278Z,16.48
2018-06-15T00:56:26.433Z,16.52
2018-06-15T00:57:26.588Z,16.63
2018-06-15T00:58:26.742Z,16.52
2018-06-15T00:59:26.896Z,16.50
2018-06-15T01:00:27.050Z,16.49
2018-06-15T01:01:27.207Z,16.50
2018-06-15T01:02:27.355Z,16.34
2018-06-15T01:03:27.509Z,16.38
2018-06-15T01:04:27.665Z,16.23
2018-06-15T01:05:27.805Z,16.23
2018-06-15T01:06:27.968Z,16.25
2018-06-15T01:07:28.124Z,16.20
2018-06-15T01:08:28.276Z,16.04
2018-06-15T01:09:28.431Z,16.09
2018-06-15T01:10:28.583Z,16.11
2018-06-15T01:11:28.737Z,16.06
2018-06-15T01:12:28.916Z,16.09
2018-06-15T01:13:29.069Z,16.12
2018-06-15T01:14:29.225Z,16.11
2018-06-15T01:15:29.379Z,16.16
2018-06-15T01:16:29.532Z,16.18
2018-06-15T01:17:29.684Z,16.22
2018-06-15T01:18:29.838Z,16.22
2018-06-15T01:19:29.992Z,16.18
2018-06-15T01:20:30.146Z,16.31
2018-06-15T01:21:30.299Z,16.25
2018-06-15T01:22:30.453Z,16.23
2018-06-15T01:23:30.605Z,16.16
2018-06-15T01:24:30.761Z,16.06
2018-06-15T01:25:30.914Z,16.01
2018-06-15T01:26:31.068Z,16.04
2018-06-15T01:27:31.221Z,16.00
2018-06-15T01:28:31.376Z,16.07
2018-06-15T01:29:31.530Z,16.11
2018-06-15T01:30:31.680Z,16.07
2018-06-15T01:31:31.836Z,16.11
2018-06-15T01:32:31.992Z,16.15
2018-06-15T01:33:32.145Z,16.11
2018-06-15T01:34:32.298Z,16.06
2018-06-15T01:35:32.452Z,16.11
2018-06-15T01:36:32.605Z,16.09
2018-06-15T01:37:32.762Z,16.03
2018-06-15T01:38:32.913Z,16.03
2018-06-15T01:39:33.070Z,15.96
2018-06-15T01:40:33.220Z,15.97
2018-06-15T01:41:33.375Z,15.82
2018-06-15T01:42:33.529Z,15.81
2018-06-15T01:43:33.684Z,15.74
2018-06-15T01:44:33.840Z,15.82
2018-06-15T01:45:33.993Z,15.75
2018-06-15T01:46:34.149Z,15.81
2018-06-15T01:47:34.304Z,15.86
2018-06-15T01:48:34.476Z,15.75
2018-06-15T01:49:34.609Z,15.72
2018-06-15T01:50:34.762Z,15.75
2018-06-15T01:51:34.915Z,15.70
2018-06-15T01:52:35.070Z,15.72
2018-06-15T01:53:35.220Z,15.64
2018-06-15T01:54:35.373Z,15.59
2018-06-15T01:55:35.526Z,15.68
2018-06-15T01:56:35.679Z,15.75
2018-06-15T01:57:35.833Z,15.57
2018-06-15T01:58:35.988Z,15.63
2018-06-15T01:59:36.139Z,15.60
2018-06-15T02:00:36.291Z,15.60
2018-06-15T02:01:36.443Z,15.46
2018-06-15T02:02:36.598Z,15.63
2018-06-15T02:03:36.751Z,15.54
2018-06-15T02:04:36.908Z,15.60
2018-06-15T02:05:37.059Z,15.60
2018-06-15T02:06:37.212Z,15.61
2018-06-15T02:07:37.365Z,15.76
2018-06-15T02:08:37.519Z,15.75
2018-06-15T02:09:37.710Z,15.72
2018-06-15T02:10:37.828Z,15.78
2018-06-15T02:11:37.985Z,15.60
2018-06-15T02:12:38.139Z,15.60
2018-06-15T02:13:38.294Z,15.70
2018-06-15T02:14:38.440Z,15.72
2018-06-15T02:15:38.605Z,15.76
2018-06-15T02:16:38.761Z,15.75
2018-06-15T02:17:38.913Z,15.78
2018-06-15T02:18:39.066Z,15.81
2018-06-15T02:19:39.220Z,15.85
2018-06-15T02:20:39.375Z,15.88
2018-06-15T02:21:39.529Z,15.89
2018-06-15T02:22:39.683Z,15.96
2018-06-15T02:23:39.836Z,15.85
2018-06-15T02:24:39.988Z,15.81
2018-06-15T02:25:40.144Z,15.89
2018-06-15T02:26:40.297Z,15.88
2018-06-15T02:27:40.451Z,15.88
2018-06-15T02:28:40.604Z,15.85
2018-06-15T02:29:40.757Z,15.93
2018-06-15T02:30:40.913Z,15.96
2018-06-15T02:31:41.066Z,15.93
2018-06-15T02:32:41.220Z,15.96
2018-06-15T02:33:41.372Z,15.94
2018-06-15T02:34:41.526Z,15.99
2018-06-15T02:35:41.680Z,15.97
2018-06-15T02:36:41.835Z,15.97
2018-06-15T02:37:41.988Z,15.97
2018-06-15T02:38:42.154Z,16.04
2018-06-15T02:39:42.292Z,15.93
2018-06-15T02:40:42.466Z,15.97
2018-06-15T02:41:42.622Z,15.97
2018-06-15T02:42:42.773Z,15.94
2018-06-15T02:43:42.930Z,15.99
2018-06-15T02:44:43.081Z,15.94
2018-06-15T02:45:43.237Z,15.93
2018-06-15T02:46:43.391Z,15.97
2018-06-15T02:47:43.545Z,15.89
2018-06-15T02:48:43.698Z,15.86
2018-06-15T02:49:43.853Z,15.79
2018-06-15T02:50:44.007Z,15.84
2018-06-15T02:51:44.159Z,15.84
2018-06-15T02:52:44.314Z,15.85
2018-06-15T02:53:44.467Z,15.86
2018-06-15T02:54:44.620Z,15.85
2018-06-15T02:55:44.775Z,15.74
2018-06-15T02:56:44.927Z,15.75
2018-06-15T02:57:45.083Z,15.84
2018-06-15T02:58:45.237Z,15.84
2018-06-15T02:59:45.391Z,15.86
2018-06-15T03:00:45.545Z,15.88
2018-06-15T03:01:45.699Z,15.92
2018-06-15T03:02:45.853Z,15.85
2018-06-15T03:03:46.007Z,16.00
2018-06-15T03:04:46.163Z,15.96
2018-06-15T03:05:46.317Z,15.94
2018-06-15T03:06:46.470Z,15.89
2018-06-15T03:07:46.626Z,15.92
2018-06-15T03:08:46.781Z,15.85
2018-06-15T03:09:46.933Z,15.89
2018-06-15T03:10:47.089Z,15.86
2018-06-15T03:11:47.246Z,15.74
2018-06-15T03:12:47.395Z,15.64
2018-06-15T03:13:47.548Z,15.68
2018-06-15T03:14:47.701Z,15.79
2018-06-15T03:15:47.856Z,15.74
2018-06-15T03:16:48.013Z,15.78
2018-06-15T03:17:48.167Z,15.67
2018-06-15T03:18:48.319Z,15.74
2018-06-15T03:19:48.474Z,15.74
2018-06-15T03:20:48.638Z,15.76
2018-06-15T03:21:48.781Z,15.68
2018-06-15T03:22:48.936Z,15.60
2018-06-15T03:23:49.090Z,15.63
2018-06-15T03:24:49.244Z,15.68
2018-06-15T03:25:49.402Z,15.64
2018-06-15T03:26:49.556Z,15.59
2018-06-15T03:27:49.752Z,15.61
2018-06-15T03:28:49.863Z,15.59
2018-06-15T03:29:50.016Z,15.66
2018-06-15T03:30:50.177Z,15.66
2018-06-15T03:31:50.325Z,15.72
2018-06-15T03:32:50.480Z,15.75
2018-06-15T03:33:50.635Z,15.86
2018-06-15T03:34:50.786Z,15.88
2018-06-15T03:35:50.939Z,15.92
2018-06-15T03:36:51.097Z,15.94
2018-06-15T03:37:51.249Z,16.00
2018-06-15T03:38:51.402Z,16.03
2018-06-15T03:39:51.556Z,16.14
2018-06-15T03:40:51.713Z,16.11
2018-06-15T03:41:51.865Z,15.96
2018-06-15T03:42:52.019Z,16.00
2018-06-15T03:43:52.171Z,15.94
2018-06-15T03:44:52.326Z,15.97
2018-06-15T03:45:52.486Z,15.99
2018-06-15T03:46:52.634Z,16.01
2018-06-15T03:47:52.787Z,15.97
2018-06-15T03:48:52.941Z,15.97
2018-06-15T03:49:53.097Z,15.88
2018-06-15T03:50:53.251Z,15.97
2018-06-15T03:51:53.406Z,16.03
2018-06-15T03:52:53.560Z,16.09
2018-06-15T03:53:53.718Z,15.92
2018-06-15T03:54:53.875Z,15.96
2018-06-15T03:55:54.024Z,16.06
2018-06-15T03:56:54.178Z,16.23
2018-06-15T03:57:54.333Z,16.16
2018-06-15T03:58:54.528Z,16.12
2018-06-15T03:59:54.642Z,16.04
2018-06-15T04:00:54.797Z,15.93
2018-06-15T04:01:54.951Z,16.09
2018-06-15T04:02:55.105Z,16.03
2018-06-15T04:03:55.258Z,16.11
2018-06-15T04:04:55.412Z,16.20
2018-06-15T04:05:55.565Z,16.15
2018-06-15T04:06:55.720Z,16.26
2018-06-15T04:07:55.875Z,16.25
2018-06-15T04:08:56.030Z,16.35
2018-06-15T04:09:56.182Z,16.33
2018-06-15T04:10:56.339Z,16.27
2018-06-15T04:11:56.492Z,16.37
2018-06-15T04:12:56.719Z,16.31
2018-06-15T04:13:56.805Z,16.41
2018-06-15T04:14:56.958Z,16.15
2018-06-15T04:15:57.112Z,16.23
2018-06-15T04:16:57.265Z,16.15
2018-06-15T04:17:57.419Z,16.11
2018-06-15T04:18:57.574Z,16.20
2018-06-15T04:19:57.728Z,16.23
2018-06-15T04:20:57.886Z,16.23
2018-06-15T04:21:58.034Z,16.31
2018-06-15T04:22:58.188Z,16.31
2018-06-15T04:23:58.344Z,16.20
2018-06-15T04:24:58.500Z,16.30
2018-06-15T04:25:58.654Z,16.35
2018-06-15T04:26:58.807Z,16.33
2018-06-15T04:27:58.961Z,16.34
2018-06-15T04:28:59.118Z,16.44
2018-06-15T04:29:59.271Z,16.35
2018-06-15T04:30:59.429Z,16.44
2018-06-15T04:31:59.580Z,16.45
2018-06-15T04:32:59.741Z,16.38
2018-06-15T04:33:59.889Z,16.40
2018-06-15T04:35:00.043Z,16.27
2018-06-15T04:36:00.197Z,16.26
2018-06-15T04:37:00.353Z,16.33
2018-06-15T04:38:00.510Z,16.33
2018-06-15T04:39:00.662Z,16.38
2018-06-15T04:40:00.814Z,16.41
2018-06-15T04:41:00.971Z,16.45
2018-06-15T04:42:01.128Z,16.44
2018-06-15T04:43:01.286Z,16.49
2018-06-15T04:44:01.441Z,16.44
2018-06-15T04:45:01.593Z,16.49
2018-06-15T04:46:01.751Z,16.56
2018-06-15T04:47:01.903Z,16.59
2018-06-15T04:48:02.057Z,16.63
2018-06-15T04:49:02.213Z,16.63
2018-06-15T04:50:02.367Z,16.71
2018-06-15T04:51:02.523Z,16.60
2018-06-15T04:52:02.678Z,16.60
2018-06-15T04:53:02.833Z,16.53
2018-06-15T04:54:02.987Z,16.70
2018-06-15T04:55:03.143Z,16.71
2018-06-15T04:56:03.298Z,16.75
2018-06-15T04:57:03.452Z,16.85
2018-06-15T04:58:03.609Z,16.93
2018-06-15T04:59:03.764Z,16.95
2018-06-15T05:00:03.920Z,17.04
2018-06-15T05:01:04.073Z,17.06
2018-06-15T05:02:04.230Z,17.07
2018-06-15T05:03:04.386Z,17.04
2018-06-15T05:04:04.540Z,17.00
2018-06-15T05:05:04.695Z,17.10
2018-06-15T05:06:04.850Z,17.20
2018-06-15T05:07:05.007Z,17.28
2018-06-15T05:08:05.162Z,17.36
2018-06-15T05:09:05.318Z,17.29
2018-06-15T05:10:05.471Z,17.41
2018-06-15T05:11:05.628Z,17.43
2018-06-15T05:12:05.782Z,17.40
2018-06-15T05:13:05.940Z,17.46
2018-06-15T05:14:06.094Z,17.55
2018-06-15T05:15:06.255Z,17.36
2018-06-15T05:16:06.407Z,17.53
2018-06-15T05:17:06.578Z,17.53
2018-06-15T05:18:06.715Z,17.70
2018-06-15T05:19:06.873Z,17.64
2018-06-15T05:20:07.028Z,17.84
2018-06-15T05:21:07.184Z,17.88
2018-06-15T05:22:07.341Z,17.94
2018-06-15T05:23:07.496Z,17.94
2018-06-15T05:24:07.651Z,18.03
2018-06-15T05:25:07.808Z,18.15
2018-06-15T05:26:07.963Z,18.27
2018-06-15T05:27:08.116Z,18.47
2018-06-15T05:28:08.276Z,18.40
2018-06-15T05:29:08.430Z,18.44
2018-06-15T05:30:08.584Z,18.55
2018-06-15T05:31:08.738Z,18.43
2018-06-15T05:32:08.896Z,18.57
2018-06-15T05:33:09.050Z,18.62
2018-06-15T05:34:09.209Z,18.79
2018-06-15T05:35:09.364Z,18.84
2018-06-15T05:36:09.520Z,18.87
2018-06-15T05:37:09.673Z,18.62
2018-06-15T05:38:09.830Z,18.36
2018-06-15T05:39:09.990Z,17.97
2018-06-15T05:40:10.148Z,17.92
2018-06-15T05:41:10.300Z,17.97
2018-06-15T05:42:10.459Z,18.27
2018-06-15T05:43:10.613Z,18.43
2018-06-15T05:44:10.766Z,18.61
2018-06-15T05:45:10.927Z,18.58
2018-06-15T05:46:11.080Z,18.73
2018-06-15T05:47:11.236Z,18.79
2018-06-15T05:48:11.392Z,18.70
2018-06-15T05:49:11.550Z,18.79
2018-06-15T05:50:11.706Z,18.82
2018-06-15T05:51:11.862Z,18.98
2018-06-15T05:52:12.018Z,18.74
2018-06-15T05:53:12.178Z,18.87
2018-06-15T05:54:12.338Z,18.90
2018-06-15T05:55:12.523Z,18.95
2018-06-15T05:56:12.643Z,18.92
2018-06-15T05:57:12.798Z,18.95
2018-06-15T05:58:12.956Z,18.72
2018-06-15T05:59:13.110Z,18.57
2018-06-15T06:00:13.267Z,18.19
2018-06-15T06:01:13.426Z,18.10
2018-06-15T06:02:13.581Z,18.29
2018-06-15T06:03:13.740Z,18.34
2018-06-15T06:04:13.908Z,18.40
2018-06-15T06:05:14.053Z,18.62
2018-06-15T06:06:14.208Z,18.54
2018-06-15T06:07:14.365Z,18.64
2018-06-15T06:08:14.523Z,18.67
2018-06-15T06:09:14.677Z,18.36
2018-06-15T06:10:14.834Z,18.47
2018-06-15T06:11:14.989Z,18.67
2018-06-15T06:12:15.144Z,18.79
2018-06-15T06:13:15.300Z,18.86
2018-06-15T06:14:15.456Z,19.08
2018-06-15T06:15:15.614Z,19.11
2018-06-15T06:16:15.771Z,19.31
2018-06-15T06:17:15.929Z,19.32
2018-06-15T06:18:16.085Z,19.32
2018-06-15T06:19:16.270Z,19.13
2018-06-15T06:20:16.397Z,19.06
2018-06-15T06:21:16.554Z,19.10
2018-06-15T06:22:16.711Z,19.24
2018-06-15T06:23:16.868Z,19.24
2018-06-15T06:24:17.024Z,19.31
2018-06-15T06:25:17.181Z,19.40
2018-06-15T06:26:17.338Z,19.47
2018-06-15T06:27:17.498Z,19.40
2018-06-15T06:28:17.652Z,19.39
2018-06-15T06:29:17.807Z,19.53
2018-06-15T06:30:17.964Z,19.51
2018-06-15T06:31:18.125Z,19.54
2018-06-15T06:32:18.283Z,19.68
2018-06-15T06:33:18.437Z,19.80
2018-06-15T06:34:18.593Z,19.83
2018-06-15T06:35:18.753Z,19.88
2018-06-15T06:36:18.908Z,19.93
2018-06-15T06:37:19.063Z,19.86
2018-06-15T06:38:19.222Z,19.84
2018-06-15T06:39:19.376Z,19.28
2018-06-15T06:40:19.538Z,19.11
2018-06-15T06:41:19.691Z,19.21
2018-06-15T06:42:19.849Z,19.25
2018-06-15T06:43:20.008Z,19.39
2018-06-15T06:44:20.165Z,19.38
2018-06-15T06:45:20.320Z,19.38
2018-06-15T06:46:20.476Z,19.40
2018-06-15T06:47:20.634Z,19.17
2018-06-15T06:48:20.791Z,19.10
2018-06-15T06:49:20.949Z,19.18
2018-06-15T06:50:21.106Z,18.87
2018-06-15T06:51:21.263Z,18.95
2018-06-15T06:52:21.420Z,18.98
2018-06-15T06:53:21.577Z,19.13
2018-06-15T06:54:21.733Z,19.13
2018-06-15T06:55:21.888Z,19.14
2018-06-15T06:56:22.047Z,19.20
2018-06-15T06:57:22.203Z,19.31
2018-06-15T06:58:22.360Z,19.31
2018-06-15T06:59:22.515Z,19.20
2018-06-15T07:00:22.675Z,19.14
2018-06-15T07:01:22.832Z,19.10
2018-06-15T07:02:22.986Z,19.10
2018-06-15T07:03:23.148Z,19.15
2018-06-15T07:04:23.304Z,19.02
2018-06-15T07:05:23.460Z,18.92
2018-06-15T07:06:23.628Z,18.87
2018-06-15T07:07:23.774Z,18.83
2018-06-15T07:08:23.935Z,19.10
2018-06-15T07:09:24.088Z,19.06
2018-06-15T07:10:24.248Z,19.01
2018-06-15T07:11:24.404Z,19.02
2018-06-15T07:12:24.561Z,19.10
2018-06-15T07:13:24.720Z,18.87
2018-06-15T07:14:24.879Z,18.86
2018-06-15T07:15:25.036Z,18.99
2018-06-15T07:16:25.193Z,19.01
2018-06-15T07:17:25.350Z,19.05
2018-06-15T07:18:25.507Z,19.13
2018-06-15T07:19:25.662Z,19.20
2018-06-15T07:20:25.820Z,19.33
2018-06-15T07:21:25.978Z,19.48
2018-06-15T07:22:26.135Z,19.55
2018-06-15T07:23:26.290Z,19.75
2018-06-15T07:24:26.453Z,19.58
2018-06-15T07:25:26.608Z,19.57
2018-06-15T07:26:26.766Z,19.76
2018-06-15T07:27:26.921Z,19.68
2018-06-15T07:28:27.079Z,19.66
2018-06-15T07:29:27.236Z,19.76
2018-06-15T07:30:27.394Z,19.80
2018-06-15T07:31:27.549Z,19.91
2018-06-15T07:32:27.707Z,19.98
2018-06-15T07:33:27.879Z,19.80
2018-06-15T07:34:28.022Z,19.86
2018-06-15T07:35:28.177Z,19.87
2018-06-15T07:36:28.334Z,20.00
2018-06-15T07:37:28.490Z,20.02
2018-06-15T07:38:28.653Z,20.02
2018-06-15T07:39:28.804Z,20.16
2018-06-15T07:40:28.962Z,20.03
2018-06-15T07:41:29.121Z,20.08
2018-06-15T07:42:29.276Z,20.23
2018-06-15T07:43:29.435Z,20.00
2018-06-15T07:44:29.590Z,19.98
2018-06-15T07:45:29.746Z,20.03
2018-06-15T07:46:29.903Z,20.08
2018-06-15T07:47:30.061Z,20.15
2018-06-15T07:48:30.219Z,20.03
2018-06-15T07:49:30.375Z,20.15
2018-06-15T07:50:30.532Z,20.00
2018-06-15T07:51:30.689Z,20.13
2018-06-15T07:52:30.901Z,20.16
2018-06-15T07:53:31.009Z,20.16
2018-06-15T07:54:31.161Z,19.94
2018-06-15T07:55:31.319Z,19.88
2018-06-15T07:56:31.477Z,19.78
2018-06-15T07:57:31.635Z,19.83
2018-06-15T07:58:31.791Z,19.54
2018-06-15T07:59:31.963Z,19.68
2018-06-15T08:00:32.108Z,19.54
2018-06-15T08:01:32.264Z,19.61
2018-06-15T08:02:32.420Z,19.76
2018-06-15T08:03:32.577Z,19.76
2018-06-15T08:04:32.736Z,19.58
2018-06-15T08:05:32.892Z,19.61
2018-06-15T08:06:33.051Z,19.73
2018-06-15T08:07:33.209Z,19.53
2018-06-15T08:08:33.370Z,19.31
2018-06-15T08:09:33.525Z,19.48
2018-06-15T08:10:33.684Z,19.39
2018-06-15T08:11:33.841Z,19.40
2018-06-15T08:12:33.998Z,19.40
2018-06-15T08:13:34.155Z,19.40
2018-06-15T08:14:34.315Z,19.32
2018-06-15T08:15:34.474Z,19.47
2018-06-15T08:16:34.629Z,19.55
2018-06-15T08:17:34.784Z,19.54
2018-06-15T08:18:34.940Z,19.58
2018-06-15T08:19:35.101Z,19.47
2018-06-15T08:20:35.257Z,19.51
2018-06-15T08:21:35.463Z,19.36
2018-06-15T08:22:35.574Z,19.13
2018-06-15T08:23:35.733Z,19.11
2018-06-15T08:24:35.890Z,19.11
2018-06-15T08:25:36.045Z,18.84
2018-06-15T08:26:36.201Z,18.74
2018-06-15T08:27:36.359Z,18.61
2018-06-15T08:28:36.515Z,18.61
2018-06-15T08:29:36.671Z,18.76
2018-06-15T08:30:36.828Z,18.37
2018-06-15T08:31:36.983Z,18.54
2018-06-15T08:32:37.143Z,18.28
2018-06-15T08:33:37.299Z,17.91
2018-06-15T08:34:37.454Z,17.92
2018-06-15T08:35:37.614Z,17.71
2018-06-15T08:36:37.768Z,17.63
2018-06-15T08:37:37.926Z,17.50
2018-06-15T08:38:38.083Z,17.50
2018-06-15T08:39:38.240Z,17.38
2018-06-15T08:40:38.396Z,17.38
2018-06-15T08:41:38.552Z,17.46
2018-06-15T08:42:38.709Z,17.62
2018-06-15T08:43:38.865Z,17.66
2018-06-15T08:44:39.024Z,17.84
2018-06-15T08:45:39.177Z,17.78
2018-06-15T08:46:39.334Z,17.85
2018-06-15T08:47:39.492Z,17.95
2018-06-15T08:48:39.647Z,17.95
2018-06-15T08:49:39.804Z,17.94
2018-06-15T08:50:39.961Z,18.09
2018-06-15T08:51:40.118Z,18.12
2018-06-15T08:52:40.297Z,18.25
2018-06-15T08:53:40.430Z,18.42
2018-06-15T08:54:40.586Z,18.42
2018-06-15T08:55:40.743Z,18.50
2018-06-15T08:56:40.897Z,18.47
2018-06-15T08:57:41.053Z,18.43
2018-06-15T08:58:41.211Z,18.33
2018-06-15T08:59:41.366Z,18.29
2018-06-15T09:00:41.525Z,18.18
2018-06-15T09:01:41.681Z,18.44
2018-06-15T09:02:41.843Z,18.65
2018-06-15T09:03:41.999Z,18.62
2018-06-15T09:04:42.152Z,18.58
2018-06-15T09:05:42.310Z,18.58
2018-06-15T09:06:42.478Z,18.68
2018-06-15T09:07:42.654Z,18.72
2018-06-15T09:08:42.786Z,18.65
2018-06-15T09:09:42.943Z,18.65
2018-06-15T09:10:43.102Z,18.76
2018-06-15T09:11:43.263Z,18.72
2018-06-15T09:12:43.413Z,18.84
2018-06-15T09:13:43.570Z,18.84
2018-06-15T09:14:43.724Z,18.87
2018-06-15T09:15:43.943Z,18.82
2018-06-15T09:16:44.040Z,19.08
2018-06-15T09:17:44.205Z,18.86
2018-06-15T09:18:44.355Z,18.92
2018-06-15T09:19:44.511Z,19.01
2018-06-15T09:20:44.671Z,18.73
2018-06-15T09:21:44.826Z,18.77
2018-06-15T09:22:44.983Z,18.80
2018-06-15T09:23:45.141Z,18.87
2018-06-15T09:24:45.296Z,18.91
2018-06-15T09:25:45.455Z,18.79
2018-06-15T09:26:45.610Z,18.76
2018-06-15T09:27:45.767Z,18.79
2018-06-15T09:28:45.926Z,18.76
2018-06-15T09:29:46.083Z,18.79
2018-06-15T09:30:46.246Z,18.76
2018-06-15T09:31:46.401Z,18.84
2018-06-15T09:32:46.554Z,19.06
2018-06-15T09:33:46.712Z,19.01
2018-06-15T09:34:46.869Z,19.24
2018-06-15T09:35:47.028Z,19.29
2018-06-15T09:36:47.186Z,19.25
2018-06-15T09:37:47.343Z,19.33
2018-06-15T09:38:47.505Z,19.28
2018-06-15T09:39:47.658Z,19.18
2018-06-15T09:40:47.867Z,19.14
2018-06-15T09:41:47.973Z,19.05
2018-06-15T09:42:48.131Z,19.18
2018-06-15T09:43:48.290Z,19.29
2018-06-15T09:44:48.447Z,19.33
2018-06-15T09:45:48.603Z,19.35
2018-06-15T09:46:48.762Z,19.54
2018-06-15T09:47:48.924Z,19.55
2018-06-15T09:48:49.074Z,19.76
2018-06-15T09:49:49.234Z,19.78
2018-06-15T09:50:49.393Z,19.88
2018-06-15T09:51:49.548Z,19.98
2018-06-15T09:52:49.723Z,19.97
2018-06-15T09:53:49.919Z,19.87
2018-06-15T09:54:50.022Z,19.98
2018-06-15T09:55:50.181Z,19.95
2018-06-15T09:56:50.341Z,20.09
2018-06-15T09:57:50.496Z,20.21
2018-06-15T09:58:50.655Z,20.69
2018-06-15T09:59:50.810Z,20.58
2018-06-15T10:00:50.969Z,20.83
2018-06-15T10:01:51.131Z,20.64
2018-06-15T10:02:51.289Z,20.83
2018-06-15T10:03:51.450Z,20.77
2018-06-15T10:04:51.610Z,20.79
2018-06-15T10:05:51.771Z,20.87
2018-06-15T10:06:51.925Z,21.16
2018-06-15T10:07:52.085Z,21.53
2018-06-15T10:08:52.243Z,21.61
2018-06-15T10:09:52.403Z,21.72
2018-06-15T10:10:52.559Z,21.69
2018-06-15T10:11:52.720Z,21.53
2018-06-15T10:12:52.879Z,21.41
2018-06-15T10:13:53.035Z,21.66
2018-06-15T10:14:53.195Z,21.85
2018-06-15T10:15:53.511Z,21.72
2018-06-15T10:16:53.547Z,22.01
2018-06-15T10:17:53.708Z,22.09
2018-06-15T10:18:53.872Z,22.06
2018-06-15T10:19:54.035Z,22.02
2018-06-15T10:20:54.189Z,22.17
2018-06-15T10:21:54.346Z,22.52
2018-06-15T10:22:54.510Z,22.34
2018-06-15T10:23:54.668Z,21.88
2018-06-15T10:24:54.831Z,22.10
2018-06-15T10:25:54.995Z,22.01
2018-06-15T10:26:55.153Z,21.98
2018-06-15T10:27:55.314Z,21.83
2018-06-15T10:28:55.473Z,21.95
2018-06-15T10:29:55.634Z,21.83
2018-06-15T10:30:55.796Z,21.88
2018-06-15T10:31:55.956Z,21.76
2018-06-15T10:32:56.123Z,22.27
2018-06-15T10:33:56.274Z,22.27
2018-06-15T10:34:56.435Z,22.29
2018-06-15T10:35:56.598Z,22.35
2018-06-15T10:36:56.760Z,22.37
2018-06-15T10:37:56.919Z,22.37
2018-06-15T10:38:57.076Z,22.57
2018-06-15T10:39:57.239Z,22.67
2018-06-15T10:40:57.403Z,22.57
2018-06-15T10:41:57.565Z,22.83
2018-06-15T10:42:57.723Z,23.01
2018-06-15T10:43:57.882Z,23.35
2018-06-15T10:44:58.047Z,23.50
2018-06-15T10:45:58.256Z,23.68
2018-06-15T10:46:58.367Z,23.97
2018-06-15T10:47:58.527Z,23.89
2018-06-15T10:48:58.688Z,24.20
2018-06-15T10:49:58.849Z,24.44
2018-06-15T10:50:59.012Z,24.57
2018-06-15T10:51:59.170Z,24.42
2018-06-15T10:52:59.333Z,24.27
2018-06-15T10:53:59.494Z,24.17
2018-06-15T10:54:59.654Z,23.42
2018-06-15T10:55:59.815Z,23.29
2018-06-15T10:56:59.976Z,23.72
2018-06-15T10:58:00.137Z,24.13
2018-06-15T10:59:00.298Z,24.31
2018-06-15T11:00:00.463Z,24.47
2018-06-15T11:01:00.622Z,24.42
2018-06-15T11:02:00.783Z,23.86
2018-06-15T11:03:00.941Z,23.68
2018-06-15T11:04:01.108Z,24.01
2018-06-15T11:05:01.265Z,23.85
2018-06-15T11:06:01.425Z,23.39
2018-06-15T11:07:01.587Z,23.57
2018-06-15T11:08:01.749Z,24.04
2018-06-15T11:09:01.941Z,24.08
2018-06-15T11:10:02.078Z,23.42
2018-06-15T11:11:02.241Z,23.43
2018-06-15T11:12:02.401Z,23.08
2018-06-15T11:13:02.567Z,22.75
2018-06-15T11:14:02.738Z,23.02
2018-06-15T11:15:02.893Z,23.20
2018-06-15T11:16:03.054Z,23.70
2018-06-15T11:17:03.213Z,24.14
2018-06-15T11:18:03.377Z,24.01
2018-06-15T11:19:03.540Z,24.14
2018-06-15T11:20:03.699Z,24.26
2018-06-15T11:21:03.860Z,24.54
2018-06-15T11:22:04.026Z,24.63
2018-06-15T11:23:04.187Z,24.69
2018-06-15T11:24:04.346Z,24.38
2018-06-15T11:25:04.508Z,24.88
2018-06-15T11:26:04.671Z,25.22
2018-06-15T11:27:04.831Z,25.32
2018-06-15T11:28:04.994Z,25.34
2018-06-15T11:29:05.155Z,25.22
2018-06-15T11:30:05.321Z,24.67
2018-06-15T11:31:05.491Z,24.69
2018-06-15T11:32:05.647Z,24.16
2018-06-15T11:33:05.808Z,24.37
2018-06-15T11:34:05.972Z,24.50
2018-06-15T11:35:06.134Z,24.91
2018-06-15T11:36:06.301Z,24.83
2018-06-15T11:37:06.460Z,24.10
2018-06-15T11:38:06.625Z,23.95
2018-06-15T11:39:06.784Z,24.02
2018-06-15T11:40:06.951Z,23.85
2018-06-15T11:41:07.138Z,23.95
2018-06-15T11:42:07.280Z,24.14
2018-06-15T11:43:07.445Z,24.17
2018-06-15T11:44:07.607Z,24.02
2018-06-15T11:45:07.769Z,23.90
2018-06-15T11:46:07.933Z,24.01
2018-06-15T11:47:08.095Z,23.82
2018-06-15T11:48:08.266Z,23.77
2018-06-15T11:49:08.425Z,23.77
2018-06-15T11:50:08.586Z,23.76
2018-06-15T11:51:08.747Z,23.75
2018-06-15T11:52:08.909Z,23.49
2018-06-15T11:53:09.073Z,23.40
2018-06-15T11:54:09.237Z,23.12
2018-06-15T11:55:09.400Z,22.90
2018-06-15T11:56:09.563Z,22.78
2018-06-15T11:57:09.724Z,22.90
2018-06-15T11:58:09.884Z,22.96
2018-06-15T11:59:10.049Z,23.11
2018-06-15T12:00:10.213Z,23.31
2018-06-15T12:01:10.375Z,23.05
2018-06-15T12:02:10.539Z,22.78
2018-06-15T12:03:10.698Z,22.83
2018-06-15T12:04:10.861Z,22.78
2018-06-15T12:05:11.023Z,22.87
2018-06-15T12:06:11.184Z,22.72
2018-06-15T12:07:11.346Z,22.82
2018-06-15T12:08:11.512Z,22.52
2018-06-15T12:09:11.670Z,22.57
2018-06-15T12:10:11.831Z,22.38
2018-06-15T12:11:11.993Z,22.53
2018-06-15T12:12:12.155Z,22.57
2018-06-15T12:13:12.315Z,22.46
2018-06-15T12:14:12.481Z,22.49
2018-06-15T12:15:12.637Z,22.54
2018-06-15T12:16:13.562Z,22.29
2018-06-15T12:17:12.975Z,22.29
2018-06-15T12:18:13.136Z,22.13
2018-06-15T12:19:13.296Z,22.31
2018-06-15T12:20:13.459Z,22.27
2018-06-15T12:21:13.622Z,22.17
2018-06-15T12:22:13.779Z,22.32
2018-06-15T12:23:13.945Z,22.46
2018-06-15T12:24:14.119Z,22.59
2018-06-15T12:25:14.286Z,22.65
2018-06-15T12:26:14.441Z,22.75
2018-06-15T12:27:14.628Z,23.02
2018-06-15T12:28:14.773Z,22.80
2018-06-15T12:29:14.928Z,22.77
2018-06-15T12:30:15.088Z,22.84
2018-06-15T12:31:15.252Z,22.87
2018-06-15T12:32:15.399Z,22.71
2018-06-15T12:33:15.619Z,22.64
2018-06-15T12:34:15.786Z,22.90
2018-06-15T12:35:15.899Z,22.97
2018-06-15T12:36:16.059Z,22.99
2018-06-15T12:37:16.219Z,22.97
2018-06-15T12:38:16.436Z,22.83
2018-06-15T12:39:16.556Z,22.84
2018-06-15T12:40:16.692Z,22.89
2018-06-15T12:41:16.844Z,22.64
2018-06-15T12:42:17.014Z,22.71
2018-06-15T12:43:17.166Z,22.80
2018-06-15T12:44:17.329Z,22.86
2018-06-15T12:45:17.504Z,23.26
2018-06-15T12:46:17.668Z,23.29
2018-06-15T12:47:17.833Z,23.23
2018-06-15T12:48:17.993Z,23.04
2018-06-15T12:49:18.154Z,23.05
2018-06-15T12:50:18.314Z,22.92
2018-06-15T12:51:18.533Z,22.99
2018-06-15T12:52:18.637Z,23.09
2018-06-15T12:53:18.796Z,23.19
2018-06-15T12:54:18.955Z,23.46